Strona główna
METAR-TAF:

METAR-TAF

Lotnisko :

Lublin, Polska

Port lotniczy Lublin

Szerokość geograficzna: 51-13-55N, Długość geograficzna: 22-41-25E, wysokość: 203 m

Aktualna obserwacja pogody

Raport powstał 9 minut temu, godzina 21:00 UTC
Wiatr 2 kt od północno-północny zachód
Temperatura -15°C
Wilgotność 85%
Ciśnienie 1027 hPa
Widzialność: 4000 m
Rozproszone chmury na wysokości 3500 ft
zamglenie

METAR: EPLB 252100Z 33002KT 4000 BR SCT035 M15/M17 Q1027

czas: 22:09 (21:09 UTC)

Prognoza

Raport powstał 9 minut temu, godzina 21:00 UTC
Prognoza ważna od 25 godzina 21 UTC do 26 godzina 06 UTC
Wiatr 5 kt od północno-północny wschód
Widzialność 10 km lub więcej
Rozproszone chmury na wysokości 2500 ft
Prawdopodobieństwo 40% :
Przejściowo
od 25 godzina 21 UTC do 26 godzina 06 UTC
Widzialność: 4000 m
Przerywane chmury na wysokości 1200 ft
słaby śnieg, zmętnienie

TAF: EPLB 252100Z 2521/2606 02005KT 9999 SCT025 PROB40 TEMPO 2521/2606 4000 -SN HZ BKN012

Obserwacja i prognoza pogody dla ponad 4000 lotnisk (raport METAR i TAF).

Dostępne stacje oznaczono żółtymi i czerwonymi punktami na mapie.

Najedź kursorem aby zobaczyć nazwę stacji.

Kliknij aby zobaczyć obserwacje i prognozy pogody.

Aby zmienić mapę: kliknij na zielony przycisk z czarnym krzyżykiem, aby powiększyć; na zielony przycisk z myślnikiem, aby pomniejszyć; na zielone strzałki, aby przejść do map sąsiednich.


METAR-TAF: